sensor_id;sensor_type;location;lat;lon;timestamp;P1;durP1;ratioP1;P2;durP2;ratioP2
43337;SDS011;28933;52.492;13.434;2023-10-09T00:01:05;4.90;;;3.15;;
43337;SDS011;28933;52.492;13.434;2023-10-09T00:03:59;4.32;;;2.50;;
43337;SDS011;28933;52.492;13.434;2023-10-09T00:06:46;4.25;;;2.88;;
43337;SDS011;28933;52.492;13.434;2023-10-09T00:09:36;3.35;;;2.05;;
43337;SDS011;28933;52.492;13.434;2023-10-09T00:12:31;6.07;;;2.70;;
43337;SDS011;28933;52.492;13.434;2023-10-09T00:15:18;7.40;;;3.20;;
43337;SDS011;28933;52.492;13.434;2023-10-09T00:18:05;4.25;;;2.40;;
43337;SDS011;28933;52.492;13.434;2023-10-09T00:20:52;6.25;;;3.30;;
43337;SDS011;28933;52.492;13.434;2023-10-09T00:23:40;4.28;;;2.40;;
43337;SDS011;28933;52.492;13.434;2023-10-09T00:26:26;3.85;;;2.28;;
43337;SDS011;28933;52.492;13.434;2023-10-09T00:29:15;4.90;;;2.72;;
43337;SDS011;28933;52.492;13.434;2023-10-09T00:32:07;5.93;;;2.42;;
43337;SDS011;28933;52.492;13.434;2023-10-09T00:35:01;6.07;;;2.60;;
43337;SDS011;28933;52.492;13.434;2023-10-09T00:41:18;5.63;;;3.00;;
43337;SDS011;28933;52.492;13.434;2023-10-09T00:44:05;4.85;;;2.60;;
43337;SDS011;28933;52.492;13.434;2023-10-09T00:46:53;4.93;;;2.80;;
43337;SDS011;28933;52.492;13.434;2023-10-09T00:49:39;6.40;;;3.08;;
43337;SDS011;28933;52.492;13.434;2023-10-09T00:52:29;4.70;;;3.17;;
43337;SDS011;28933;52.492;13.434;2023-10-09T00:55:31;5.05;;;2.95;;
43337;SDS011;28933;52.492;13.434;2023-10-09T00:58:23;5.43;;;2.88;;
43337;SDS011;28933;52.492;13.434;2023-10-09T01:01:16;6.50;;;3.00;;
43337;SDS011;28933;52.492;13.434;2023-10-09T01:04:03;4.05;;;2.67;;
43337;SDS011;28933;52.492;13.434;2023-10-09T01:06:55;5.10;;;2.80;;
43337;SDS011;28933;52.492;13.434;2023-10-09T01:10:00;4.93;;;2.78;;
43337;SDS011;28933;52.492;13.434;2023-10-09T01:12:55;5.32;;;3.22;;
43337;SDS011;28933;52.492;13.434;2023-10-09T01:15:41;3.90;;;2.50;;
43337;SDS011;28933;52.492;13.434;2023-10-09T01:18:29;6.05;;;3.20;;
43337;SDS011;28933;52.492;13.434;2023-10-09T01:21:21;4.72;;;2.67;;
43337;SDS011;28933;52.492;13.434;2023-10-09T01:24:10;5.65;;;2.95;;
43337;SDS011;28933;52.492;13.434;2023-10-09T01:26:55;5.65;;;3.10;;
43337;SDS011;28933;52.492;13.434;2023-10-09T01:29:44;4.50;;;2.50;;
43337;SDS011;28933;52.492;13.434;2023-10-09T01:32:31;4.63;;;2.58;;
43337;SDS011;28933;52.492;13.434;2023-10-09T01:35:20;3.65;;;2.65;;
43337;SDS011;28933;52.492;13.434;2023-10-09T01:38:06;6.28;;;2.67;;
43337;SDS011;28933;52.492;13.434;2023-10-09T01:40:58;3.65;;;2.35;;
43337;SDS011;28933;52.492;13.434;2023-10-09T01:43:54;4.60;;;2.47;;
43337;SDS011;28933;52.492;13.434;2023-10-09T01:46:46;6.53;;;3.17;;
43337;SDS011;28933;52.492;13.434;2023-10-09T01:49:33;3.78;;;2.30;;
43337;SDS011;28933;52.492;13.434;2023-10-09T01:52:21;5.80;;;2.78;;
43337;SDS011;28933;52.492;13.434;2023-10-09T01:55:07;7.25;;;3.20;;
43337;SDS011;28933;52.492;13.434;2023-10-09T01:57:58;6.47;;;2.65;;
43337;SDS011;28933;52.492;13.434;2023-10-09T02:00:47;4.72;;;2.38;;
43337;SDS011;28933;52.492;13.434;2023-10-09T02:03:47;6.75;;;2.72;;
43337;SDS011;28933;52.492;13.434;2023-10-09T02:06:36;5.47;;;2.60;;
43337;SDS011;28933;52.492;13.434;2023-10-09T02:09:23;5.28;;;3.15;;
43337;SDS011;28933;52.492;13.434;2023-10-09T02:12:16;4.53;;;2.70;;
43337;SDS011;28933;52.492;13.434;2023-10-09T02:15:03;3.92;;;2.33;;
43337;SDS011;28933;52.492;13.434;2023-10-09T02:18:01;3.58;;;2.42;;
43337;SDS011;28933;52.492;13.434;2023-10-09T02:23:57;5.18;;;2.38;;
43337;SDS011;28933;52.492;13.434;2023-10-09T02:26:48;3.45;;;2.20;;
43337;SDS011;28933;52.492;13.434;2023-10-09T02:29:37;3.55;;;2.60;;
43337;SDS011;28933;52.492;13.434;2023-10-09T02:32:23;6.40;;;2.50;;
43337;SDS011;28933;52.492;13.434;2023-10-09T02:35:13;3.80;;;2.25;;
43337;SDS011;28933;52.492;13.434;2023-10-09T02:38:18;4.38;;;2.30;;
43337;SDS011;28933;52.492;13.434;2023-10-09T02:41:08;3.17;;;2.22;;
43337;SDS011;28933;52.492;13.434;2023-10-09T02:43:57;3.35;;;2.55;;
43337;SDS011;28933;52.492;13.434;2023-10-09T02:46:56;4.60;;;2.75;;
43337;SDS011;28933;52.492;13.434;2023-10-09T02:49:43;3.47;;;2.50;;
43337;SDS011;28933;52.492;13.434;2023-10-09T02:52:30;7.00;;;2.85;;
43337;SDS011;28933;52.492;13.434;2023-10-09T02:55:26;5.75;;;3.25;;
43337;SDS011;28933;52.492;13.434;2023-10-09T02:58:13;6.35;;;2.90;;
43337;SDS011;28933;52.492;13.434;2023-10-09T03:01:12;7.07;;;3.38;;
43337;SDS011;28933;52.492;13.434;2023-10-09T03:04:01;5.93;;;2.80;;
43337;SDS011;28933;52.492;13.434;2023-10-09T03:06:48;4.45;;;2.80;;
43337;SDS011;28933;52.492;13.434;2023-10-09T03:09:37;6.03;;;3.03;;
43337;SDS011;28933;52.492;13.434;2023-10-09T03:12:23;4.00;;;2.47;;
43337;SDS011;28933;52.492;13.434;2023-10-09T03:15:12;5.63;;;2.63;;
43337;SDS011;28933;52.492;13.434;2023-10-09T03:17:59;8.00;;;3.45;;
43337;SDS011;28933;52.492;13.434;2023-10-09T03:20:45;5.80;;;3.00;;
43337;SDS011;28933;52.492;13.434;2023-10-09T03:23:31;5.25;;;2.90;;
43337;SDS011;28933;52.492;13.434;2023-10-09T03:26:19;6.07;;;3.03;;
43337;SDS011;28933;52.492;13.434;2023-10-09T03:29:05;3.97;;;2.83;;
43337;SDS011;28933;52.492;13.434;2023-10-09T03:31:55;5.80;;;3.10;;
43337;SDS011;28933;52.492;13.434;2023-10-09T03:34:42;4.97;;;2.95;;
43337;SDS011;28933;52.492;13.434;2023-10-09T03:37:28;4.22;;;2.83;;
43337;SDS011;28933;52.492;13.434;2023-10-09T03:40:20;4.30;;;3.25;;
43337;SDS011;28933;52.492;13.434;2023-10-09T03:43:07;4.15;;;2.72;;
43337;SDS011;28933;52.492;13.434;2023-10-09T03:45:55;4.55;;;2.85;;
43337;SDS011;28933;52.492;13.434;2023-10-09T03:48:42;5.28;;;2.88;;
43337;SDS011;28933;52.492;13.434;2023-10-09T03:51:31;5.75;;;2.70;;
43337;SDS011;28933;52.492;13.434;2023-10-09T03:54:18;4.38;;;2.28;;
43337;SDS011;28933;52.492;13.434;2023-10-09T03:57:07;4.15;;;2.92;;
43337;SDS011;28933;52.492;13.434;2023-10-09T03:59:53;5.20;;;3.40;;
43337;SDS011;28933;52.492;13.434;2023-10-09T04:02:40;4.85;;;2.90;;
43337;SDS011;28933;52.492;13.434;2023-10-09T04:05:27;4.82;;;2.60;;
43337;SDS011;28933;52.492;13.434;2023-10-09T04:08:13;5.45;;;3.30;;
43337;SDS011;28933;52.492;13.434;2023-10-09T04:11:05;4.82;;;2.90;;
43337;SDS011;28933;52.492;13.434;2023-10-09T04:14:01;3.97;;;2.80;;
43337;SDS011;28933;52.492;13.434;2023-10-09T04:16:55;3.97;;;2.95;;
43337;SDS011;28933;52.492;13.434;2023-10-09T04:20:04;6.32;;;3.42;;
43337;SDS011;28933;52.492;13.434;2023-10-09T04:23:19;4.63;;;3.25;;
43337;SDS011;28933;52.492;13.434;2023-10-09T04:26:20;6.53;;;3.47;;
43337;SDS011;28933;52.492;13.434;2023-10-09T04:29:06;4.10;;;3.22;;
43337;SDS011;28933;52.492;13.434;2023-10-09T04:31:56;4.63;;;3.05;;
43337;SDS011;28933;52.492;13.434;2023-10-09T04:34:45;5.78;;;2.60;;
43337;SDS011;28933;52.492;13.434;2023-10-09T04:37:34;4.75;;;2.75;;
43337;SDS011;28933;52.492;13.434;2023-10-09T04:40:24;6.43;;;3.33;;
43337;SDS011;28933;52.492;13.434;2023-10-09T04:43:28;4.60;;;3.17;;
43337;SDS011;28933;52.492;13.434;2023-10-09T04:46:14;5.90;;;2.97;;
43337;SDS011;28933;52.492;13.434;2023-10-09T04:49:08;3.97;;;3.00;;
43337;SDS011;28933;52.492;13.434;2023-10-09T04:52:12;5.30;;;3.22;;
43337;SDS011;28933;52.492;13.434;2023-10-09T04:55:10;3.88;;;2.97;;
43337;SDS011;28933;52.492;13.434;2023-10-09T04:57:56;3.38;;;2.63;;
43337;SDS011;28933;52.492;13.434;2023-10-09T05:00:54;5.00;;;3.28;;
43337;SDS011;28933;52.492;13.434;2023-10-09T05:03:43;4.68;;;2.97;;
43337;SDS011;28933;52.492;13.434;2023-10-09T05:06:29;4.53;;;2.97;;
43337;SDS011;28933;52.492;13.434;2023-10-09T05:09:27;4.22;;;2.95;;
43337;SDS011;28933;52.492;13.434;2023-10-09T05:15:19;3.72;;;2.50;;
43337;SDS011;28933;52.492;13.434;2023-10-09T05:18:12;4.90;;;3.20;;
43337;SDS011;28933;52.492;13.434;2023-10-09T05:21:02;4.20;;;2.95;;
43337;SDS011;28933;52.492;13.434;2023-10-09T05:24:07;4.03;;;2.72;;
43337;SDS011;28933;52.492;13.434;2023-10-09T05:26:59;5.63;;;3.15;;
43337;SDS011;28933;52.492;13.434;2023-10-09T05:30:06;4.05;;;2.60;;
43337;SDS011;28933;52.492;13.434;2023-10-09T05:33:09;4.45;;;2.85;;
43337;SDS011;28933;52.492;13.434;2023-10-09T05:36:13;5.35;;;3.15;;
43337;SDS011;28933;52.492;13.434;2023-10-09T05:39:20;4.18;;;2.78;;
43337;SDS011;28933;52.492;13.434;2023-10-09T05:45:28;3.25;;;2.17;;
43337;SDS011;28933;52.492;13.434;2023-10-09T05:48:32;4.03;;;2.70;;
43337;SDS011;28933;52.492;13.434;2023-10-09T05:51:24;5.07;;;2.90;;
43337;SDS011;28933;52.492;13.434;2023-10-09T05:54:28;4.70;;;2.47;;
43337;SDS011;28933;52.492;13.434;2023-10-09T05:57:32;6.00;;;3.13;;
43337;SDS011;28933;52.492;13.434;2023-10-09T06:00:37;5.07;;;2.65;;
43337;SDS011;28933;52.492;13.434;2023-10-09T06:03:41;5.70;;;2.55;;
43337;SDS011;28933;52.492;13.434;2023-10-09T06:06:46;6.68;;;2.95;;
43337;SDS011;28933;52.492;13.434;2023-10-09T06:09:40;3.85;;;2.60;;
43337;SDS011;28933;52.492;13.434;2023-10-09T06:12:37;4.78;;;2.67;;
43337;SDS011;28933;52.492;13.434;2023-10-09T06:15:34;6.57;;;2.85;;
43337;SDS011;28933;52.492;13.434;2023-10-09T06:18:51;4.13;;;2.53;;
43337;SDS011;28933;52.492;13.434;2023-10-09T06:21:56;5.60;;;2.53;;
43337;SDS011;28933;52.492;13.434;2023-10-09T06:24:49;4.40;;;3.15;;
43337;SDS011;28933;52.492;13.434;2023-10-09T06:27:37;4.32;;;2.40;;
43337;SDS011;28933;52.492;13.434;2023-10-09T06:30:26;4.75;;;2.70;;
43337;SDS011;28933;52.492;13.434;2023-10-09T06:33:14;5.85;;;2.78;;
43337;SDS011;28933;52.492;13.434;2023-10-09T06:36:14;4.32;;;2.80;;
43337;SDS011;28933;52.492;13.434;2023-10-09T06:39:03;4.65;;;2.65;;
43337;SDS011;28933;52.492;13.434;2023-10-09T06:42:07;8.88;;;2.95;;
43337;SDS011;28933;52.492;13.434;2023-10-09T06:45:16;9.10;;;3.58;;
43337;SDS011;28933;52.492;13.434;2023-10-09T06:48:02;4.10;;;3.13;;
43337;SDS011;28933;52.492;13.434;2023-10-09T06:51:14;4.40;;;2.78;;
43337;SDS011;28933;52.492;13.434;2023-10-09T06:54:12;6.47;;;3.38;;
43337;SDS011;28933;52.492;13.434;2023-10-09T06:57:01;5.40;;;3.00;;
43337;SDS011;28933;52.492;13.434;2023-10-09T06:59:58;7.18;;;3.63;;
43337;SDS011;28933;52.492;13.434;2023-10-09T07:03:02;4.72;;;3.10;;
43337;SDS011;28933;52.492;13.434;2023-10-09T07:06:05;6.43;;;2.40;;
43337;SDS011;28933;52.492;13.434;2023-10-09T07:09:09;4.88;;;3.10;;
43337;SDS011;28933;52.492;13.434;2023-10-09T07:11:55;6.13;;;2.38;;
43337;SDS011;28933;52.492;13.434;2023-10-09T07:14:44;4.80;;;2.30;;
43337;SDS011;28933;52.492;13.434;2023-10-09T07:17:30;4.85;;;2.95;;
43337;SDS011;28933;52.492;13.434;2023-10-09T07:20:19;7.35;;;3.50;;
43337;SDS011;28933;52.492;13.434;2023-10-09T07:23:23;4.78;;;2.55;;
43337;SDS011;28933;52.492;13.434;2023-10-09T07:26:13;4.80;;;2.38;;
43337;SDS011;28933;52.492;13.434;2023-10-09T07:29:08;6.47;;;3.13;;
43337;SDS011;28933;52.492;13.434;2023-10-09T07:32:07;6.47;;;2.67;;
43337;SDS011;28933;52.492;13.434;2023-10-09T07:34:57;3.97;;;2.67;;
43337;SDS011;28933;52.492;13.434;2023-10-09T07:37:45;5.68;;;2.88;;
43337;SDS011;28933;52.492;13.434;2023-10-09T07:40:36;4.68;;;2.70;;
43337;SDS011;28933;52.492;13.434;2023-10-09T07:43:44;4.13;;;2.80;;
43337;SDS011;28933;52.492;13.434;2023-10-09T07:46:30;5.25;;;2.72;;
43337;SDS011;28933;52.492;13.434;2023-10-09T07:49:18;4.78;;;2.83;;
43337;SDS011;28933;52.492;13.434;2023-10-09T07:52:10;5.38;;;2.95;;
43337;SDS011;28933;52.492;13.434;2023-10-09T07:54:57;4.68;;;2.85;;
43337;SDS011;28933;52.492;13.434;2023-10-09T07:57:52;6.10;;;3.17;;
43337;SDS011;28933;52.492;13.434;2023-10-09T08:00:38;4.70;;;3.40;;
43337;SDS011;28933;52.492;13.434;2023-10-09T08:03:48;4.45;;;3.38;;
43337;SDS011;28933;52.492;13.434;2023-10-09T08:06:47;4.60;;;3.03;;
43337;SDS011;28933;52.492;13.434;2023-10-09T08:09:33;5.97;;;3.40;;
43337;SDS011;28933;52.492;13.434;2023-10-09T08:12:51;6.68;;;3.50;;
43337;SDS011;28933;52.492;13.434;2023-10-09T08:15:37;4.85;;;3.20;;
43337;SDS011;28933;52.492;13.434;2023-10-09T08:18:38;4.68;;;3.22;;
43337;SDS011;28933;52.492;13.434;2023-10-09T08:21:30;5.88;;;2.80;;
43337;SDS011;28933;52.492;13.434;2023-10-09T08:24:30;5.78;;;2.97;;
43337;SDS011;28933;52.492;13.434;2023-10-09T08:27:41;4.63;;;3.22;;
43337;SDS011;28933;52.492;13.434;2023-10-09T08:30:39;5.20;;;2.72;;
43337;SDS011;28933;52.492;13.434;2023-10-09T08:33:35;5.38;;;3.08;;
43337;SDS011;28933;52.492;13.434;2023-10-09T08:36:28;5.22;;;2.92;;
43337;SDS011;28933;52.492;13.434;2023-10-09T08:39:21;4.38;;;2.65;;
43337;SDS011;28933;52.492;13.434;2023-10-09T08:42:10;5.45;;;2.60;;
43337;SDS011;28933;52.492;13.434;2023-10-09T08:44:56;6.38;;;2.53;;
43337;SDS011;28933;52.492;13.434;2023-10-09T08:47:45;5.90;;;3.20;;
43337;SDS011;28933;52.492;13.434;2023-10-09T08:50:35;5.30;;;3.13;;
43337;SDS011;28933;52.492;13.434;2023-10-09T08:53:22;5.68;;;3.10;;
43337;SDS011;28933;52.492;13.434;2023-10-09T08:59:12;7.75;;;3.17;;
43337;SDS011;28933;52.492;13.434;2023-10-09T09:01:58;6.43;;;3.88;;
43337;SDS011;28933;52.492;13.434;2023-10-09T09:04:45;8.38;;;4.40;;
43337;SDS011;28933;52.492;13.434;2023-10-09T09:07:35;7.03;;;4.45;;
43337;SDS011;28933;52.492;13.434;2023-10-09T09:10:30;8.60;;;3.95;;
43337;SDS011;28933;52.492;13.434;2023-10-09T09:13:20;5.40;;;3.58;;
43337;SDS011;28933;52.492;13.434;2023-10-09T09:16:15;5.40;;;3.88;;
43337;SDS011;28933;52.492;13.434;2023-10-09T09:19:15;6.72;;;3.53;;
43337;SDS011;28933;52.492;13.434;2023-10-09T09:22:04;6.47;;;3.28;;
43337;SDS011;28933;52.492;13.434;2023-10-09T09:24:58;5.13;;;3.35;;
43337;SDS011;28933;52.492;13.434;2023-10-09T09:27:54;7.40;;;3.00;;
43337;SDS011;28933;52.492;13.434;2023-10-09T09:30:42;6.18;;;3.35;;
43337;SDS011;28933;52.492;13.434;2023-10-09T09:33:28;6.10;;;3.67;;
43337;SDS011;28933;52.492;13.434;2023-10-09T09:36:28;4.82;;;3.60;;
43337;SDS011;28933;52.492;13.434;2023-10-09T09:39:20;5.40;;;3.38;;
43337;SDS011;28933;52.492;13.434;2023-10-09T09:42:13;7.93;;;3.80;;
43337;SDS011;28933;52.492;13.434;2023-10-09T09:45:00;6.97;;;3.97;;
43337;SDS011;28933;52.492;13.434;2023-10-09T09:47:50;5.05;;;3.17;;
43337;SDS011;28933;52.492;13.434;2023-10-09T09:50:39;6.07;;;3.50;;
43337;SDS011;28933;52.492;13.434;2023-10-09T09:53:30;6.15;;;3.13;;
43337;SDS011;28933;52.492;13.434;2023-10-09T09:56:20;5.18;;;3.10;;
43337;SDS011;28933;52.492;13.434;2023-10-09T09:59:10;5.82;;;3.80;;
43337;SDS011;28933;52.492;13.434;2023-10-09T10:02:07;6.20;;;3.40;;
43337;SDS011;28933;52.492;13.434;2023-10-09T10:05:02;5.72;;;3.33;;
43337;SDS011;28933;52.492;13.434;2023-10-09T10:07:51;7.50;;;3.50;;
43337;SDS011;28933;52.492;13.434;2023-10-09T10:10:40;5.18;;;3.20;;
43337;SDS011;28933;52.492;13.434;2023-10-09T10:16:29;5.38;;;3.72;;
43337;SDS011;28933;52.492;13.434;2023-10-09T10:19:19;5.47;;;3.10;;
43337;SDS011;28933;52.492;13.434;2023-10-09T10:22:24;8.30;;;4.28;;
43337;SDS011;28933;52.492;13.434;2023-10-09T10:28:18;5.85;;;3.83;;
43337;SDS011;28933;52.492;13.434;2023-10-09T10:31:50;4.75;;;3.40;;
43337;SDS011;28933;52.492;13.434;2023-10-09T10:34:53;5.68;;;3.72;;
43337;SDS011;28933;52.492;13.434;2023-10-09T10:37:42;5.90;;;3.53;;
43337;SDS011;28933;52.492;13.434;2023-10-09T10:40:45;4.70;;;3.75;;
43337;SDS011;28933;52.492;13.434;2023-10-09T10:43:31;5.60;;;3.13;;
43337;SDS011;28933;52.492;13.434;2023-10-09T10:46:22;4.60;;;3.13;;
43337;SDS011;28933;52.492;13.434;2023-10-09T10:49:08;5.32;;;3.17;;
43337;SDS011;28933;52.492;13.434;2023-10-09T10:51:58;5.50;;;3.80;;
43337;SDS011;28933;52.492;13.434;2023-10-09T10:54:46;7.43;;;4.65;;
43337;SDS011;28933;52.492;13.434;2023-10-09T10:57:50;5.53;;;3.78;;
43337;SDS011;28933;52.492;13.434;2023-10-09T11:03:42;6.25;;;4.00;;
43337;SDS011;28933;52.492;13.434;2023-10-09T11:06:50;5.80;;;3.92;;
43337;SDS011;28933;52.492;13.434;2023-10-09T11:09:46;7.43;;;4.03;;
43337;SDS011;28933;52.492;13.434;2023-10-09T11:12:51;4.97;;;4.03;;
43337;SDS011;28933;52.492;13.434;2023-10-09T11:15:37;6.28;;;3.45;;
43337;SDS011;28933;52.492;13.434;2023-10-09T11:18:31;5.38;;;3.78;;
43337;SDS011;28933;52.492;13.434;2023-10-09T11:21:28;6.18;;;3.70;;
43337;SDS011;28933;52.492;13.434;2023-10-09T11:24:17;6.00;;;4.47;;
43337;SDS011;28933;52.492;13.434;2023-10-09T11:27:12;10.23;;;4.28;;
43337;SDS011;28933;52.492;13.434;2023-10-09T11:30:04;5.97;;;4.03;;
43337;SDS011;28933;52.492;13.434;2023-10-09T11:33:04;5.43;;;4.05;;
43337;SDS011;28933;52.492;13.434;2023-10-09T11:35:56;6.47;;;4.13;;
43337;SDS011;28933;52.492;13.434;2023-10-09T11:38:42;5.85;;;3.83;;
43337;SDS011;28933;52.492;13.434;2023-10-09T11:41:39;6.18;;;4.55;;
43337;SDS011;28933;52.492;13.434;2023-10-09T11:47:33;6.88;;;4.75;;
43337;SDS011;28933;52.492;13.434;2023-10-09T11:50:20;6.20;;;5.07;;
43337;SDS011;28933;52.492;13.434;2023-10-09T11:53:16;6.53;;;4.70;;
43337;SDS011;28933;52.492;13.434;2023-10-09T11:56:08;9.65;;;4.50;;
43337;SDS011;28933;52.492;13.434;2023-10-09T11:58:59;5.78;;;4.30;;
43337;SDS011;28933;52.492;13.434;2023-10-09T12:01:50;7.75;;;5.15;;
43337;SDS011;28933;52.492;13.434;2023-10-09T12:04:41;7.40;;;5.07;;
43337;SDS011;28933;52.492;13.434;2023-10-09T12:07:27;6.60;;;5.30;;
43337;SDS011;28933;52.492;13.434;2023-10-09T12:10:13;6.55;;;4.40;;
43337;SDS011;28933;52.492;13.434;2023-10-09T12:13:09;6.05;;;4.35;;
43337;SDS011;28933;52.492;13.434;2023-10-09T12:15:55;5.75;;;4.80;;
43337;SDS011;28933;52.492;13.434;2023-10-09T12:18:43;8.32;;;4.40;;
43337;SDS011;28933;52.492;13.434;2023-10-09T12:21:38;16.23;;;4.60;;
43337;SDS011;28933;52.492;13.434;2023-10-09T12:24:28;6.03;;;4.35;;
43337;SDS011;28933;52.492;13.434;2023-10-09T12:27:14;13.63;;;4.75;;
43337;SDS011;28933;52.492;13.434;2023-10-09T12:30:05;6.10;;;4.65;;
43337;SDS011;28933;52.492;13.434;2023-10-09T12:33:01;6.05;;;4.68;;
43337;SDS011;28933;52.492;13.434;2023-10-09T12:35:47;4.82;;;3.92;;
43337;SDS011;28933;52.492;13.434;2023-10-09T12:38:33;7.47;;;5.38;;
43337;SDS011;28933;52.492;13.434;2023-10-09T12:41:19;9.55;;;5.88;;
43337;SDS011;28933;52.492;13.434;2023-10-09T12:44:11;7.80;;;5.20;;
43337;SDS011;28933;52.492;13.434;2023-10-09T12:47:00;7.47;;;5.57;;
43337;SDS011;28933;52.492;13.434;2023-10-09T12:49:50;11.15;;;7.20;;
43337;SDS011;28933;52.492;13.434;2023-10-09T12:52:39;15.13;;;5.75;;
43337;SDS011;28933;52.492;13.434;2023-10-09T12:55:25;7.78;;;6.50;;
43337;SDS011;28933;52.492;13.434;2023-10-09T12:58:17;8.23;;;6.15;;
43337;SDS011;28933;52.492;13.434;2023-10-09T13:01:04;8.32;;;5.93;;
43337;SDS011;28933;52.492;13.434;2023-10-09T13:03:58;11.25;;;7.18;;
43337;SDS011;28933;52.492;13.434;2023-10-09T13:06:45;10.70;;;6.72;;
43337;SDS011;28933;52.492;13.434;2023-10-09T13:09:32;9.23;;;6.47;;
43337;SDS011;28933;52.492;13.434;2023-10-09T13:12:22;10.73;;;6.43;;
43337;SDS011;28933;52.492;13.434;2023-10-09T13:15:09;9.02;;;6.43;;
43337;SDS011;28933;52.492;13.434;2023-10-09T13:17:55;10.23;;;6.80;;
43337;SDS011;28933;52.492;13.434;2023-10-09T13:20:41;8.18;;;6.05;;
43337;SDS011;28933;52.492;13.434;2023-10-09T13:23:27;13.50;;;7.20;;
43337;SDS011;28933;52.492;13.434;2023-10-09T13:26:23;8.77;;;6.53;;
43337;SDS011;28933;52.492;13.434;2023-10-09T13:29:13;9.48;;;6.55;;
43337;SDS011;28933;52.492;13.434;2023-10-09T13:31:59;8.63;;;6.50;;
43337;SDS011;28933;52.492;13.434;2023-10-09T13:34:48;7.75;;;5.47;;
43337;SDS011;28933;52.492;13.434;2023-10-09T13:37:34;8.32;;;6.22;;
43337;SDS011;28933;52.492;13.434;2023-10-09T13:40:22;8.77;;;6.43;;
43337;SDS011;28933;52.492;13.434;2023-10-09T13:43:15;8.90;;;6.07;;
43337;SDS011;28933;52.492;13.434;2023-10-09T13:46:01;8.93;;;6.00;;
43337;SDS011;28933;52.492;13.434;2023-10-09T13:48:49;7.35;;;5.97;;
43337;SDS011;28933;52.492;13.434;2023-10-09T13:51:38;7.78;;;5.57;;
43337;SDS011;28933;52.492;13.434;2023-10-09T13:54:29;10.60;;;6.57;;
43337;SDS011;28933;52.492;13.434;2023-10-09T13:57:18;7.90;;;5.78;;
43337;SDS011;28933;52.492;13.434;2023-10-09T14:00:07;7.82;;;5.93;;
43337;SDS011;28933;52.492;13.434;2023-10-09T14:02:56;9.52;;;6.38;;
43337;SDS011;28933;52.492;13.434;2023-10-09T14:05:46;7.50;;;5.60;;
43337;SDS011;28933;52.492;13.434;2023-10-09T14:08:39;7.13;;;5.20;;
43337;SDS011;28933;52.492;13.434;2023-10-09T14:11:27;14.18;;;6.63;;
43337;SDS011;28933;52.492;13.434;2023-10-09T14:14:13;8.90;;;5.53;;
43337;SDS011;28933;52.492;13.434;2023-10-09T14:17:01;6.57;;;4.95;;
43337;SDS011;28933;52.492;13.434;2023-10-09T14:19:47;9.40;;;5.80;;
43337;SDS011;28933;52.492;13.434;2023-10-09T14:22:33;9.68;;;5.68;;
43337;SDS011;28933;52.492;13.434;2023-10-09T14:25:23;8.82;;;6.32;;
43337;SDS011;28933;52.492;13.434;2023-10-09T14:28:09;8.63;;;6.35;;
43337;SDS011;28933;52.492;13.434;2023-10-09T14:30:55;8.02;;;6.68;;
43337;SDS011;28933;52.492;13.434;2023-10-09T14:33:44;7.45;;;5.93;;
43337;SDS011;28933;52.492;13.434;2023-10-09T14:36:36;6.82;;;5.43;;
43337;SDS011;28933;52.492;13.434;2023-10-09T14:39:29;9.68;;;5.78;;
43337;SDS011;28933;52.492;13.434;2023-10-09T14:42:15;9.68;;;6.60;;
43337;SDS011;28933;52.492;13.434;2023-10-09T14:45:01;9.95;;;5.60;;
43337;SDS011;28933;52.492;13.434;2023-10-09T14:47:53;8.07;;;6.22;;
43337;SDS011;28933;52.492;13.434;2023-10-09T14:50:45;11.65;;;6.28;;
43337;SDS011;28933;52.492;13.434;2023-10-09T14:53:34;10.23;;;6.30;;
43337;SDS011;28933;52.492;13.434;2023-10-09T14:56:20;7.72;;;5.72;;
43337;SDS011;28933;52.492;13.434;2023-10-09T14:59:14;8.30;;;5.85;;
43337;SDS011;28933;52.492;13.434;2023-10-09T15:02:01;8.23;;;5.75;;
43337;SDS011;28933;52.492;13.434;2023-10-09T15:04:47;9.85;;;6.68;;
43337;SDS011;28933;52.492;13.434;2023-10-09T15:07:33;7.50;;;6.00;;
43337;SDS011;28933;52.492;13.434;2023-10-09T15:10:19;8.43;;;6.07;;
43337;SDS011;28933;52.492;13.434;2023-10-09T15:13:05;7.05;;;6.05;;
43337;SDS011;28933;52.492;13.434;2023-10-09T15:15:51;9.48;;;6.80;;
43337;SDS011;28933;52.492;13.434;2023-10-09T15:18:39;11.88;;;6.97;;
43337;SDS011;28933;52.492;13.434;2023-10-09T15:21:25;9.38;;;7.22;;
43337;SDS011;28933;52.492;13.434;2023-10-09T15:24:17;7.90;;;6.13;;
43337;SDS011;28933;52.492;13.434;2023-10-09T15:27:06;8.32;;;6.28;;
43337;SDS011;28933;52.492;13.434;2023-10-09T15:29:54;7.28;;;5.68;;
43337;SDS011;28933;52.492;13.434;2023-10-09T15:32:40;8.80;;;7.10;;
43337;SDS011;28933;52.492;13.434;2023-10-09T15:35:27;8.75;;;6.45;;
43337;SDS011;28933;52.492;13.434;2023-10-09T15:38:19;10.45;;;6.97;;
43337;SDS011;28933;52.492;13.434;2023-10-09T15:41:05;8.90;;;6.18;;
43337;SDS011;28933;52.492;13.434;2023-10-09T15:43:51;8.95;;;6.45;;
43337;SDS011;28933;52.492;13.434;2023-10-09T15:46:37;10.57;;;6.65;;
43337;SDS011;28933;52.492;13.434;2023-10-09T15:49:23;7.95;;;6.30;;
43337;SDS011;28933;52.492;13.434;2023-10-09T15:52:09;8.25;;;6.30;;
43337;SDS011;28933;52.492;13.434;2023-10-09T15:54:59;11.15;;;6.65;;
43337;SDS011;28933;52.492;13.434;2023-10-09T15:57:46;10.50;;;7.30;;
43337;SDS011;28933;52.492;13.434;2023-10-09T16:00:37;9.52;;;6.50;;
43337;SDS011;28933;52.492;13.434;2023-10-09T16:03:24;8.90;;;7.13;;
43337;SDS011;28933;52.492;13.434;2023-10-09T16:06:12;9.93;;;5.93;;
43337;SDS011;28933;52.492;13.434;2023-10-09T16:09:01;9.57;;;6.65;;
43337;SDS011;28933;52.492;13.434;2023-10-09T16:11:47;8.80;;;6.32;;
43337;SDS011;28933;52.492;13.434;2023-10-09T16:14:35;7.20;;;5.63;;
43337;SDS011;28933;52.492;13.434;2023-10-09T16:17:21;7.28;;;6.20;;
43337;SDS011;28933;52.492;13.434;2023-10-09T16:20:10;8.32;;;6.03;;
43337;SDS011;28933;52.492;13.434;2023-10-09T16:23:11;8.60;;;5.28;;
43337;SDS011;28933;52.492;13.434;2023-10-09T16:25:58;7.88;;;6.10;;
43337;SDS011;28933;52.492;13.434;2023-10-09T16:28:45;7.82;;;5.72;;
43337;SDS011;28933;52.492;13.434;2023-10-09T16:31:34;7.90;;;5.90;;
43337;SDS011;28933;52.492;13.434;2023-10-09T16:34:21;7.18;;;5.68;;
43337;SDS011;28933;52.492;13.434;2023-10-09T16:37:11;7.00;;;5.25;;
43337;SDS011;28933;52.492;13.434;2023-10-09T16:39:59;7.57;;;5.25;;
43337;SDS011;28933;52.492;13.434;2023-10-09T16:42:51;9.10;;;5.47;;
43337;SDS011;28933;52.492;13.434;2023-10-09T16:45:39;7.43;;;5.90;;
43337;SDS011;28933;52.492;13.434;2023-10-09T16:48:28;8.15;;;6.15;;
43337;SDS011;28933;52.492;13.434;2023-10-09T16:51:14;6.18;;;5.32;;
43337;SDS011;28933;52.492;13.434;2023-10-09T16:54:03;9.70;;;7.15;;
43337;SDS011;28933;52.492;13.434;2023-10-09T16:56:50;7.68;;;6.20;;
43337;SDS011;28933;52.492;13.434;2023-10-09T16:59:42;7.78;;;5.15;;
43337;SDS011;28933;52.492;13.434;2023-10-09T17:02:29;7.63;;;6.00;;
43337;SDS011;28933;52.492;13.434;2023-10-09T17:05:16;6.93;;;6.00;;
43337;SDS011;28933;52.492;13.434;2023-10-09T17:08:13;7.53;;;6.15;;
43337;SDS011;28933;52.492;13.434;2023-10-09T17:10:59;7.72;;;5.85;;
43337;SDS011;28933;52.492;13.434;2023-10-09T17:13:45;9.10;;;6.53;;
43337;SDS011;28933;52.492;13.434;2023-10-09T17:16:33;10.60;;;6.70;;
43337;SDS011;28933;52.492;13.434;2023-10-09T17:19:19;7.78;;;6.35;;
43337;SDS011;28933;52.492;13.434;2023-10-09T17:22:05;7.78;;;5.50;;
43337;SDS011;28933;52.492;13.434;2023-10-09T17:24:56;7.53;;;5.63;;